Time;durP1;ratioP1;P1;durP2;ratioP2;P2;SDS_P1;SDS_P2;PMS_P1;PMS_P2;Temp;Humidity;BMP_temperature;BMP_pressure;BME280_temperature;BME280_humidity;BME280_pressure;Samples;Min_cycle;Max_cycle;Signal;HPM_P1;HPM_P2
2021/10/09 07:03:21;;;;;;;84.82;46.55;;;15.70;99.90;;;;;;2594683;46;20034;-81
2021/10/09 07:05:49;;;;;;;92.60;48.10;;;9.80;99.90;;;;;;2593855;46;20022;-82
2021/10/09 07:08:15;;;;;;;82.43;45.53;;;9.70;99.90;;;;;;2595889;47;20026;-81
2021/10/09 07:10:47;;;;;;;85.20;45.40;;;9.60;99.90;;;;;;2584640;54;20476;-79
2021/10/09 07:13:15;;;;;;;83.85;45.33;;;9.60;99.90;;;;;;2588610;39;20439;-79
2021/10/09 07:15:41;;;;;;;82.20;42.38;;;9.60;99.90;;;;;;2591188;47;21299;-79
2021/10/09 07:18:11;;;;;;;75.45;43.00;;;9.70;99.90;;;;;;2592383;47;20053;-82
2021/10/09 07:20:38;;;;;;;74.90;39.83;;;9.70;99.90;;;;;;2585603;46;20053;-84
2021/10/09 07:23:11;;;;;;;70.88;40.15;;;9.70;99.90;;;;;;2585698;39;20337;-83
2021/10/09 07:25:39;;;;;;;70.65;38.75;;;9.70;99.90;;;;;;2592131;47;20041;-83
2021/10/09 07:28:05;;;;;;;75.43;39.78;;;9.70;99.90;;;;;;2591649;47;20041;-84
2021/10/09 07:30:31;;;;;;;76.25;38.70;;;9.70;99.90;;;;;;2587418;54;20037;-85
2021/10/09 07:33:11;;;;;;;68.32;39.85;;;9.70;99.90;;;;;;2583155;47;20034;-78
2021/10/09 07:35:37;;;;;;;68.78;39.50;;;9.80;99.90;;;;;;2592000;47;20038;-85
2021/10/09 07:38:04;;;;;;;72.00;40.90;;;9.70;99.90;;;;;;2594825;46;20038;-82
2021/10/09 07:40:33;;;;;;;66.63;38.80;;;9.70;99.90;;;;;;2590724;39;20375;-84
2021/10/09 07:43:00;;;;;;;67.38;39.17;;;9.70;99.90;;;;;;2586124;54;20667;-83
2021/10/09 07:45:26;;;;;;;70.70;40.83;;;9.70;99.90;;;;;;2593835;46;20080;-83
2021/10/09 07:47:52;;;;;;;79.32;45.63;;;9.70;99.90;;;;;;2595859;46;20038;-85
2021/10/09 07:50:19;;;;;;;77.85;45.08;;;9.70;99.90;;;;;;2595651;39;20456;-83
2021/10/09 07:52:51;;;;;;;80.43;47.05;;;9.70;99.90;;;;;;2583764;46;20066;-83
2021/10/09 07:55:17;;;;;;;80.45;48.30;;;9.80;99.90;;;;;;2596621;46;20030;-85
2021/10/09 07:57:43;;;;;;;76.47;45.10;;;9.80;99.90;;;;;;2595175;47;20029;-82
2021/10/09 08:00:11;;;;;;;85.53;48.75;;;9.80;99.90;;;;;;2596994;46;20026;-80
2021/10/09 08:03:04;;;;;;;79.65;46.08;;;9.80;99.90;;;;;;2581579;39;20428;-85
2021/10/09 08:05:33;;;;;;;69.55;41.97;;;9.80;99.90;;;;;;2593919;47;20129;-80
2021/10/09 08:08:07;;;;;;;74.72;44.55;;;9.90;99.90;;;;;;2596283;46;20097;-84
2021/10/09 08:10:35;;;;;;;80.20;44.42;;;9.90;99.90;;;;;;2589042;46;20030;-80
2021/10/09 08:13:05;;;;;;;70.93;42.42;;;10.00;99.90;;;;;;2585643;46;20058;-83
2021/10/09 08:15:34;;;;;;;63.85;39.63;;;10.00;99.90;;;;;;2595679;54;21042;-80
2021/10/09 08:18:02;;;;;;;69.25;44.70;;;10.00;99.90;;;;;;2595941;46;20054;-84
2021/10/09 08:20:29;;;;;;;68.38;41.80;;;10.10;99.90;;;;;;2590738;47;20026;-81
2021/10/09 08:23:08;;;;;;;65.93;42.25;;;10.10;99.90;;;;;;2585896;46;20038;-80
2021/10/09 08:26:02;;;;;;;68.50;44.05;;;10.00;99.90;;;;;;2596192;46;20030;-84
2021/10/09 08:39:46;;;;;;;61.97;39.50;;;10.30;99.90;;;;;;2595235;46;20744;-85
2021/10/09 08:42:19;;;;;;;63.85;40.08;;;10.30;99.90;;;;;;2582648;46;20030;-81
2021/10/09 08:44:45;;;;;;;59.58;37.65;;;10.50;99.90;;;;;;2595065;47;20035;-82
2021/10/09 08:47:12;;;;;;;70.55;41.17;;;10.50;99.90;;;;;;2596365;46;20038;-83
2021/10/09 08:49:47;;;;;;;69.65;43.72;;;10.50;99.90;;;;;;2594612;47;20622;-85
2021/10/09 08:52:22;;;;;;;65.70;40.92;;;10.60;99.90;;;;;;2576815;47;20034;-84
2021/10/09 08:54:48;;;;;;;69.95;38.92;;;10.60;99.90;;;;;;2594162;46;20037;-81
2021/10/09 08:57:24;;;;;;;70.25;42.78;;;10.70;99.90;;;;;;2596830;46;20081;-80
2021/10/09 09:00:08;;;;;;;64.18;40.63;;;10.70;99.90;;;;;;2594262;46;20114;-85
2021/10/09 09:02:45;;;;;;;;;;;10.70;99.90;;;;;;2576149;46;21379;-83
2021/10/09 09:08:25;;;;;;;52.10;35.38;;;10.90;99.90;;;;;;2594482;39;20371;-80
2021/10/09 09:33:42;;;;;;;39.42;27.70;;;11.50;99.90;;;;;;2580816;47;20030;-82
2021/10/09 09:36:47;;;;;;;39.63;25.48;;;11.60;99.90;;;;;;2593573;46;20041;-83
2021/10/09 09:39:12;;;;;;;40.20;25.30;;;11.70;99.90;;;;;;2594253;46;20046;-83
2021/10/09 09:41:47;;;;;;;33.25;24.35;;;11.80;99.90;;;;;;2582705;47;20072;-83
2021/10/09 09:44:30;;;;;;;36.22;24.27;;;11.90;99.90;;;;;;2594563;54;20740;-81
2021/10/09 09:47:06;;;;;;;35.00;23.88;;;12.00;99.90;;;;;;2594195;47;20027;-83
2021/10/09 09:49:43;;;;;;;38.50;23.75;;;12.10;99.90;;;;;;2595497;39;20598;-79
2021/10/09 09:52:09;;;;;;;33.10;23.42;;;12.10;99.90;;;;;;2580450;47;20803;-82
2021/10/09 09:54:38;;;;;;;33.75;22.92;;;12.20;99.90;;;;;;2592789;47;20739;-86
2021/10/09 09:57:04;;;;;;;32.42;20.95;;;12.20;99.90;;;;;;2593213;46;20630;-82
2021/10/09 09:59:32;;;;;;;30.38;21.20;;;12.30;99.90;;;;;;2594496;46;20045;-85
2021/10/09 10:02:02;;;;;;;30.42;22.23;;;12.40;99.90;;;;;;2574760;47;20022;-84
2021/10/09 10:04:30;;;;;;;33.05;20.85;;;12.50;99.90;;;;;;2593934;46;20034;-83
2021/10/09 10:06:59;;;;;;;32.88;21.65;;;12.50;99.90;;;;;;2593630;47;20065;-85
2021/10/09 10:09:34;;;;;;;33.45;20.80;;;12.60;99.90;;;;;;2593503;54;20494;-85
2021/10/09 10:12:07;;;;;;;27.58;21.35;;;12.60;99.90;;;;;;2580773;46;20053;-85
2021/10/09 10:14:34;;;;;;;27.30;20.38;;;12.70;99.90;;;;;;2594322;47;20058;-84
2021/10/09 10:17:00;;;;;;;27.33;19.83;;;12.70;99.90;;;;;;2592677;47;20023;-83
2021/10/09 10:19:53;;;;;;;35.05;20.38;;;12.80;99.90;;;;;;2593998;46;20030;-81
2021/10/09 10:22:31;;;;;;;29.83;20.15;;;12.80;99.90;;;;;;2580185;47;20796;-78
2021/10/09 10:25:01;;;;;;;27.60;19.65;;;12.90;99.90;;;;;;2593193;47;20056;-83
2021/10/09 10:27:40;;;;;;;26.52;19.92;;;12.90;99.90;;;;;;2593392;54;20061;-83
2021/10/09 10:30:18;;;;;;;28.33;20.85;;;13.00;99.90;;;;;;2594204;46;20034;-85
2021/10/09 10:32:52;;;;;;;28.17;19.33;;;13.00;99.90;;;;;;2578051;47;20050;-84
2021/10/09 10:35:31;;;;;;;23.77;19.00;;;13.10;99.90;;;;;;2594395;47;20471;-87
2021/10/09 10:38:11;;;;;;;29.52;19.08;;;13.20;99.90;;;;;;2593422;46;20057;-83
2021/10/09 10:41:05;;;;;;;30.85;18.35;;;13.20;99.90;;;;;;2587982;47;20483;-86
2021/10/09 10:46:25;;;;;;;29.48;20.27;;;13.40;99.90;;;;;;2595282;47;20693;-84
2021/10/09 10:49:05;;;;;;;24.25;17.35;;;13.40;99.90;;;;;;2595377;46;20061;-76
2021/10/09 10:56:59;;;;;;;27.75;18.00;;;13.50;99.90;;;;;;2577442;54;21093;-84
2021/10/09 10:59:55;;;;;;;29.08;16.83;;;13.40;99.90;;;;;;2577952;47;20093;-81
2021/10/09 11:02:39;;;;;;;25.63;16.60;;;13.50;99.90;;;;;;2565262;46;20038;-86
2021/10/09 11:05:11;;;;;;;24.55;17.33;;;13.60;99.90;;;;;;2589358;47;20034;-85
2021/10/09 11:07:39;;;;;;;22.42;16.50;;;13.70;99.90;;;;;;2590921;47;20956;-85
2021/10/09 11:10:16;;;;;;;27.92;16.13;;;13.90;99.90;;;;;;2590588;47;20094;-81
2021/10/09 11:12:52;;;;;;;23.05;16.35;;;14.10;99.90;;;;;;2577836;47;20033;-80
2021/10/09 11:15:31;;;;;;;21.77;14.65;;;14.10;97.30;;;;;;2595859;39;20409;-84
2021/10/09 11:18:06;;;;;;;26.65;16.08;;;14.10;99.90;;;;;;2594062;47;20492;-84
2021/10/09 11:20:42;;;;;;;22.63;14.15;;;14.20;99.90;;;;;;2586841;47;20038;-81
2021/10/09 11:23:13;;;;;;;20.70;15.27;;;14.30;99.90;;;;;;2584581;47;20026;-84
2021/10/09 11:25:41;;;;;;;21.38;15.23;;;14.30;99.90;;;;;;2593060;47;20038;-83
2021/10/09 11:28:22;;;;;;;27.42;16.98;;;14.30;99.90;;;;;;2593170;47;20074;-82
2021/10/09 11:30:49;;;;;;;25.08;15.20;;;14.30;96.50;;;;;;2582837;47;21527;-83
